Richmond Hill, Georgia
Current Conditions -  °F | °C
As of 8:58 AM on Saturday 25 Oct 2014 (Local Time) from KSVN Reporting Station
Clear Clear  
Wind Chill: 55°   Ceiling: Unl
Heat Index: 55°   Visibility: 10mi
Dew Point: 51°   Wind: 2mph
Humidity: 88%   Direction: 290°WNW
Pressure: 30.01"   Gusts: NA
Location:  31.94°N, 81.3°W
Report Text: KSVN 251258Z AUTO 29002KT 10SM CLR 13/11 A3001 RMK AO2 SLP165 T01270108
Loading
Personal Weather Stations






























Interactive Weather Map
Tropical Storm Tracking
New forecast layout! Learn more

10-Day Weather Forecast

Advertisements
Track Severe Weather on mobile